createdAt,value
2018-07-15T00:00:51.480Z,13.34
2018-07-15T00:03:55.733Z,13.33
2018-07-15T00:06:59.961Z,13.31
2018-07-15T00:10:04.661Z,13.30
2018-07-15T00:13:08.904Z,13.29
2018-07-15T00:16:13.121Z,13.26
2018-07-15T00:19:17.372Z,13.24
2018-07-15T00:22:21.629Z,13.23
2018-07-15T00:25:25.877Z,13.23
2018-07-15T00:28:30.088Z,13.24
2018-07-15T00:31:34.344Z,13.17
2018-07-15T00:34:38.560Z,13.05
2018-07-15T00:37:42.795Z,12.89
2018-07-15T00:40:47.068Z,12.80
2018-07-15T00:43:51.284Z,12.75
2018-07-15T00:46:55.821Z,12.72
2018-07-15T00:50:00.056Z,12.71
2018-07-15T00:53:04.269Z,12.72
2018-07-15T00:56:08.552Z,12.72
2018-07-15T00:59:12.760Z,12.72
2018-07-15T01:02:17.984Z,12.70
2018-07-15T01:05:21.976Z,12.65
2018-07-15T01:08:26.202Z,12.60
2018-07-15T01:11:30.472Z,12.54
2018-07-15T01:14:34.719Z,12.51
2018-07-15T01:17:38.983Z,12.45
2018-07-15T01:20:43.288Z,12.45
2018-07-15T01:23:47.293Z,12.48
2018-07-15T01:26:51.593Z,12.47
2018-07-15T01:29:55.792Z,12.46
2018-07-15T01:33:00.028Z,12.45
2018-07-15T01:36:04.244Z,12.41
2018-07-15T01:39:08.484Z,12.37
2018-07-15T01:42:12.704Z,12.31
2018-07-15T01:45:16.948Z,12.26
2018-07-15T01:48:21.181Z,12.21
2018-07-15T01:51:26.303Z,12.18
2018-07-15T01:54:30.519Z,12.15
2018-07-15T01:57:34.798Z,12.12
2018-07-15T02:00:39.010Z,12.09
2018-07-15T02:03:43.233Z,12.06
2018-07-15T02:06:47.456Z,12.06
2018-07-15T02:09:51.696Z,12.00
2018-07-15T02:12:55.945Z,11.96
2018-07-15T02:16:00.171Z,11.93
2018-07-15T02:19:04.397Z,11.90
2018-07-15T02:22:08.598Z,11.91
2018-07-15T02:25:12.864Z,11.90
2018-07-15T02:28:17.134Z,11.85
2018-07-15T02:31:21.349Z,11.84
2018-07-15T02:34:27.799Z,11.85
2018-07-15T02:37:32.013Z,11.87
2018-07-15T02:40:36.241Z,11.89
2018-07-15T02:43:40.453Z,11.88
2018-07-15T02:46:44.679Z,11.87
2018-07-15T02:49:48.899Z,11.83
2018-07-15T02:52:53.217Z,11.82
2018-07-15T02:55:57.435Z,11.79
2018-07-15T02:59:01.679Z,11.75
2018-07-15T03:02:05.890Z,11.71
2018-07-15T03:05:10.136Z,11.68
2018-07-15T03:08:14.357Z,11.67
2018-07-15T03:11:18.561Z,11.66
2018-07-15T03:14:22.776Z,11.65
2018-07-15T03:17:27.112Z,11.61
2018-07-15T03:20:31.267Z,11.60
2018-07-15T03:23:35.496Z,11.60
2018-07-15T03:26:39.722Z,11.61
2018-07-15T03:29:43.934Z,11.62
2018-07-15T03:32:48.173Z,11.62
2018-07-15T03:35:52.400Z,11.64
2018-07-15T03:38:56.618Z,11.65
2018-07-15T03:42:00.834Z,11.65
2018-07-15T03:45:05.193Z,11.67
2018-07-15T03:48:09.409Z,11.72
2018-07-15T03:51:13.627Z,11.77
2018-07-15T03:54:18.278Z,11.82
2018-07-15T03:57:22.513Z,11.84
2018-07-15T04:00:26.740Z,11.87
2018-07-15T04:03:30.996Z,11.86
2018-07-15T04:06:35.180Z,11.84
2018-07-15T04:09:39.408Z,11.82
2018-07-15T04:12:43.605Z,11.79
2018-07-15T04:15:47.816Z,11.79
2018-07-15T04:18:52.037Z,11.81
2018-07-15T04:21:56.258Z,11.83
2018-07-15T04:25:00.477Z,11.85
2018-07-15T04:28:05.324Z,11.84
2018-07-15T04:31:09.545Z,11.84
2018-07-15T04:34:13.792Z,11.87
2018-07-15T04:37:18.009Z,11.89
2018-07-15T04:40:22.383Z,11.94
2018-07-15T04:43:26.661Z,12.03
2018-07-15T04:46:30.842Z,12.10
2018-07-15T04:49:35.073Z,12.18
2018-07-15T04:52:39.342Z,12.27
2018-07-15T04:55:43.584Z,12.39
2018-07-15T04:58:47.885Z,12.51
2018-07-15T05:01:52.137Z,12.63
2018-07-15T05:04:56.346Z,12.72
2018-07-15T05:08:00.589Z,12.82
2018-07-15T05:11:04.806Z,12.94
2018-07-15T05:14:09.244Z,13.09
2018-07-15T05:17:13.478Z,13.27
2018-07-15T05:20:17.695Z,13.39
2018-07-15T05:23:21.919Z,13.52
2018-07-15T05:26:26.218Z,13.65
2018-07-15T05:29:30.470Z,13.77
2018-07-15T05:32:35.034Z,13.93
2018-07-15T05:35:39.257Z,14.08
2018-07-15T05:38:43.484Z,14.21
2018-07-15T05:41:47.685Z,14.37
2018-07-15T05:44:51.922Z,14.52
2018-07-15T05:47:56.177Z,14.67
2018-07-15T05:51:00.402Z,14.85
2018-07-15T05:54:04.648Z,15.00
2018-07-15T05:57:08.865Z,15.16
2018-07-15T06:00:13.096Z,15.37
2018-07-15T06:03:17.310Z,15.67
2018-07-15T06:06:21.570Z,15.87
2018-07-15T06:09:25.802Z,16.03
2018-07-15T06:12:30.062Z,16.19
2018-07-15T06:15:34.289Z,16.37
2018-07-15T06:18:38.513Z,16.58
2018-07-15T06:21:42.751Z,16.80
2018-07-15T06:24:46.982Z,16.99
2018-07-15T06:27:51.220Z,17.18
2018-07-15T06:30:55.477Z,17.34
2018-07-15T06:33:59.709Z,17.42
2018-07-15T06:37:04.017Z,17.58
2018-07-15T06:40:08.449Z,17.74
2018-07-15T06:43:12.693Z,17.89
2018-07-15T06:46:16.940Z,17.98
2018-07-15T06:49:21.174Z,18.08
2018-07-15T06:52:25.385Z,18.15
2018-07-15T06:55:29.599Z,18.27
2018-07-15T06:58:33.825Z,18.38
2018-07-15T07:01:38.100Z,18.49
2018-07-15T07:04:42.681Z,18.62
2018-07-15T07:07:47.900Z,18.80
2018-07-15T07:10:52.073Z,18.94
2018-07-15T07:13:56.281Z,19.03
2018-07-15T07:17:00.497Z,19.15
2018-07-15T07:20:04.688Z,19.26
2018-07-15T07:23:08.918Z,19.46
2018-07-15T07:26:13.124Z,19.59
2018-07-15T07:29:17.359Z,19.74
2018-07-15T07:32:21.564Z,19.91
2018-07-15T07:35:25.760Z,19.97
2018-07-15T07:38:29.946Z,20.03
2018-07-15T07:41:34.165Z,20.14
2018-07-15T07:44:38.361Z,20.26
2018-07-15T07:47:42.589Z,20.34
2018-07-15T07:50:46.813Z,20.47
2018-07-15T07:53:51.049Z,20.60
2018-07-15T07:56:55.251Z,20.72
2018-07-15T07:59:59.484Z,20.81
2018-07-15T08:03:03.685Z,20.89
2018-07-15T08:06:07.930Z,20.96
2018-07-15T08:09:12.119Z,21.01
2018-07-15T08:12:16.316Z,21.14
2018-07-15T08:15:20.566Z,21.22
2018-07-15T08:18:24.716Z,21.40
2018-07-15T08:21:28.936Z,21.51
2018-07-15T08:24:33.187Z,21.56
2018-07-15T08:27:37.385Z,21.61
2018-07-15T08:30:58.537Z,21.69
2018-07-15T08:34:02.757Z,21.84
2018-07-15T08:37:07.042Z,21.87
2018-07-15T08:40:11.277Z,21.94
2018-07-15T08:43:15.497Z,22.02
2018-07-15T08:46:19.692Z,22.05
2018-07-15T08:49:23.901Z,22.18
2018-07-15T08:52:28.109Z,22.38
2018-07-15T08:55:32.324Z,22.60
2018-07-15T08:58:36.557Z,22.63
2018-07-15T09:01:40.765Z,22.71
2018-07-15T09:04:44.971Z,22.85
2018-07-15T09:07:49.185Z,22.92
2018-07-15T09:10:53.389Z,22.96
2018-07-15T09:13:57.612Z,23.13
2018-07-15T09:17:01.596Z,23.21
2018-07-15T09:20:05.926Z,23.33
2018-07-15T09:23:10.167Z,23.29
2018-07-15T09:26:14.347Z,23.22
2018-07-15T09:29:18.565Z,23.45
2018-07-15T09:32:22.799Z,23.67
2018-07-15T09:35:27.085Z,23.77
2018-07-15T09:38:31.734Z,23.68
2018-07-15T09:41:35.989Z,23.65
2018-07-15T09:44:40.216Z,23.67
2018-07-15T09:47:44.421Z,23.73
2018-07-15T09:50:48.603Z,23.73
2018-07-15T09:53:52.812Z,23.80
2018-07-15T09:56:57.042Z,23.85
2018-07-15T10:00:01.402Z,23.83
2018-07-15T10:03:05.622Z,23.77
2018-07-15T10:06:09.824Z,23.82
2018-07-15T10:09:14.786Z,23.72
2018-07-15T10:12:18.981Z,23.69
2018-07-15T10:15:23.201Z,23.75
2018-07-15T10:18:27.429Z,23.71
2018-07-15T10:21:31.665Z,23.55
2018-07-15T10:24:35.919Z,23.70
2018-07-15T10:27:40.140Z,23.90
2018-07-15T10:30:44.369Z,24.07
2018-07-15T10:33:48.586Z,24.08
2018-07-15T10:36:52.822Z,23.93
2018-07-15T10:39:57.140Z,23.82
2018-07-15T10:43:01.357Z,23.87
2018-07-15T10:46:05.617Z,23.86
2018-07-15T10:49:09.796Z,23.88
2018-07-15T10:52:14.025Z,24.16
2018-07-15T10:55:18.228Z,24.34
2018-07-15T10:58:22.448Z,24.29
2018-07-15T11:01:26.636Z,24.13
2018-07-15T11:04:30.857Z,24.02
2018-07-15T11:07:35.052Z,24.07
2018-07-15T11:10:39.265Z,24.23
2018-07-15T11:13:43.460Z,24.36
2018-07-15T11:16:47.673Z,24.40
2018-07-15T11:19:51.876Z,24.41
2018-07-15T11:22:56.093Z,24.34
2018-07-15T11:26:00.310Z,24.37
2018-07-15T11:29:04.549Z,24.39
2018-07-15T11:32:08.777Z,24.32
2018-07-15T11:35:13.031Z,24.23
2018-07-15T11:38:17.812Z,24.23
2018-07-15T11:41:22.049Z,24.36
2018-07-15T11:44:26.246Z,24.57
2018-07-15T11:47:30.458Z,24.75
2018-07-15T11:50:34.693Z,24.93
2018-07-15T11:53:38.893Z,25.04
2018-07-15T11:56:43.123Z,25.06
2018-07-15T11:59:47.361Z,25.02
2018-07-15T12:02:51.564Z,24.97
2018-07-15T12:05:55.749Z,24.89
2018-07-15T12:08:59.994Z,24.84
2018-07-15T12:12:04.190Z,24.72
2018-07-15T12:15:08.401Z,24.67
2018-07-15T12:18:12.616Z,24.64
2018-07-15T12:21:16.888Z,24.55
2018-07-15T12:24:21.097Z,24.47
2018-07-15T12:27:25.318Z,24.41
2018-07-15T12:30:29.525Z,24.49
2018-07-15T12:33:33.730Z,24.69
2018-07-15T12:36:37.940Z,24.89
2018-07-15T12:39:42.141Z,24.99
2018-07-15T12:42:46.345Z,25.11
2018-07-15T12:45:50.553Z,25.26
2018-07-15T12:48:54.925Z,25.22
2018-07-15T12:51:59.165Z,25.02
2018-07-15T12:55:03.364Z,24.80
2018-07-15T12:58:07.625Z,24.79
2018-07-15T13:01:11.879Z,24.90
2018-07-15T13:04:16.062Z,25.00
2018-07-15T13:07:20.292Z,25.08
2018-07-15T13:10:24.259Z,25.07
2018-07-15T13:13:28.475Z,24.95
2018-07-15T13:16:32.737Z,24.79
2018-07-15T13:19:37.116Z,24.74
2018-07-15T13:22:41.320Z,24.86
2018-07-15T13:25:45.524Z,24.97
2018-07-15T13:28:49.974Z,25.02
2018-07-15T13:31:54.173Z,25.24
2018-07-15T13:34:58.425Z,25.44
2018-07-15T13:38:02.653Z,25.63
2018-07-15T13:41:06.913Z,25.83
2018-07-15T13:44:11.126Z,25.99
2018-07-15T13:47:15.354Z,26.12
2018-07-15T13:50:19.581Z,26.21
2018-07-15T13:53:24.032Z,26.25
2018-07-15T13:56:28.276Z,26.27
2018-07-15T13:59:32.480Z,26.12
2018-07-15T14:02:37.073Z,25.91
2018-07-15T14:05:41.296Z,25.86
2018-07-15T14:08:45.489Z,25.90
2018-07-15T14:11:49.709Z,25.98
2018-07-15T14:14:53.925Z,26.16
2018-07-15T14:17:58.140Z,26.30
2018-07-15T14:21:02.523Z,26.41
2018-07-15T14:24:06.781Z,26.54
2018-07-15T14:27:11.042Z,26.54
2018-07-15T14:30:15.249Z,26.56
2018-07-15T14:33:19.472Z,26.62
2018-07-15T14:36:23.689Z,26.80
2018-07-15T14:39:36.229Z,27.01
2018-07-15T14:42:40.460Z,27.25
2018-07-15T14:45:46.784Z,27.21
2018-07-15T14:48:51.014Z,27.20
2018-07-15T14:51:55.217Z,27.39
2018-07-15T14:54:59.438Z,27.47
2018-07-15T14:58:03.757Z,27.57
2018-07-15T15:01:08.093Z,27.81
2018-07-15T15:04:12.280Z,27.93
2018-07-15T15:07:16.492Z,28.11
2018-07-15T15:10:20.705Z,28.14
2018-07-15T15:13:24.966Z,28.16
2018-07-15T15:16:29.160Z,28.18
2018-07-15T15:19:33.349Z,28.23
2018-07-15T15:22:37.621Z,28.37
2018-07-15T15:25:41.914Z,28.55
2018-07-15T15:28:46.108Z,28.70
2018-07-15T15:31:50.322Z,28.75
2018-07-15T15:34:54.569Z,28.90
2018-07-15T15:37:58.801Z,29.06
2018-07-15T15:41:03.037Z,29.27
2018-07-15T15:44:07.922Z,29.43
2018-07-15T15:47:12.317Z,29.57
2018-07-15T15:50:16.300Z,29.58
2018-07-15T15:53:20.492Z,29.39
2018-07-15T15:56:24.684Z,29.34
2018-07-15T15:59:28.943Z,29.39
2018-07-15T16:02:33.181Z,29.26
2018-07-15T16:05:37.469Z,29.14
2018-07-15T16:08:41.715Z,28.89
2018-07-15T16:11:45.937Z,28.61
2018-07-15T16:14:50.178Z,28.34
2018-07-15T16:17:54.396Z,28.13
2018-07-15T16:20:58.597Z,28.00
2018-07-15T16:24:02.947Z,27.77
2018-07-15T16:27:07.181Z,27.48
2018-07-15T16:30:11.406Z,26.97
2018-07-15T16:33:15.650Z,26.62
2018-07-15T16:36:19.854Z,26.22
2018-07-15T16:39:24.052Z,25.89
2018-07-15T16:42:28.250Z,25.67
2018-07-15T16:45:32.511Z,25.51
2018-07-15T16:48:36.685Z,25.26
2018-07-15T16:51:41.037Z,25.15
2018-07-15T16:54:45.321Z,25.02
2018-07-15T16:57:49.537Z,24.92
2018-07-15T17:00:53.761Z,24.83
2018-07-15T17:03:58.004Z,24.79
2018-07-15T17:07:02.250Z,24.65
2018-07-15T17:10:07.266Z,24.57
2018-07-15T17:13:11.521Z,24.51
2018-07-15T17:16:15.724Z,24.44
2018-07-15T17:19:19.940Z,24.39
2018-07-15T17:22:24.135Z,24.31
2018-07-15T17:25:28.367Z,24.27
2018-07-15T17:28:32.569Z,24.20
2018-07-15T17:31:36.802Z,24.14
2018-07-15T17:34:40.987Z,24.10
2018-07-15T17:37:45.200Z,23.98
2018-07-15T17:40:49.421Z,23.96
2018-07-15T17:43:53.669Z,23.89
2018-07-15T17:46:57.868Z,23.89
2018-07-15T17:50:02.607Z,23.88
2018-07-15T17:53:06.822Z,23.81
2018-07-15T17:56:11.058Z,23.75
2018-07-15T17:59:15.232Z,23.69
2018-07-15T18:02:19.468Z,23.62
2018-07-15T18:05:23.669Z,23.57
2018-07-15T18:08:27.905Z,23.47
2018-07-15T18:11:32.093Z,23.43
2018-07-15T18:14:36.297Z,23.36
2018-07-15T18:17:40.521Z,23.33
2018-07-15T18:20:44.822Z,23.30
2018-07-15T18:23:48.960Z,23.23
2018-07-15T18:26:53.221Z,23.14
2018-07-15T18:29:57.442Z,23.07
2018-07-15T18:33:01.621Z,22.99
2018-07-15T18:36:05.852Z,22.93
2018-07-15T18:39:10.151Z,22.82
2018-07-15T18:42:14.309Z,22.72
2018-07-15T18:45:18.536Z,22.68
2018-07-15T18:48:22.792Z,22.56
2018-07-15T18:51:27.049Z,22.48
2018-07-15T18:54:31.280Z,22.45
2018-07-15T18:57:35.489Z,22.39
2018-07-15T19:00:39.700Z,22.29
2018-07-15T19:03:43.957Z,22.18
2018-07-15T19:06:48.177Z,22.09
2018-07-15T19:09:52.400Z,22.01
2018-07-15T19:12:56.626Z,21.91
2018-07-15T19:16:00.808Z,21.81
2018-07-15T19:19:05.117Z,21.70
2018-07-15T19:22:09.325Z,21.57
2018-07-15T19:25:13.536Z,21.45
2018-07-15T19:28:17.766Z,21.38
2018-07-15T19:31:21.991Z,21.30
2018-07-15T19:34:26.213Z,21.19
2018-07-15T19:37:30.424Z,21.05
2018-07-15T19:40:34.821Z,20.98
2018-07-15T19:43:39.084Z,20.92
2018-07-15T19:46:43.313Z,20.81
2018-07-15T19:49:47.508Z,20.69
2018-07-15T19:52:51.724Z,20.57
2018-07-15T19:55:55.945Z,20.47
2018-07-15T19:59:00.173Z,20.37
2018-07-15T20:02:04.396Z,20.29
2018-07-15T20:05:08.604Z,20.24
2018-07-15T20:08:12.830Z,20.13
2018-07-15T20:11:17.061Z,20.01
2018-07-15T20:14:21.537Z,19.96
2018-07-15T20:17:25.768Z,19.88
2018-07-15T20:20:29.998Z,19.79
2018-07-15T20:23:34.212Z,19.72
2018-07-15T20:26:38.437Z,19.63
2018-07-15T20:29:42.689Z,19.54
2018-07-15T20:32:46.934Z,19.45
2018-07-15T20:35:51.157Z,19.38
2018-07-15T20:38:55.545Z,19.30
2018-07-15T20:41:59.757Z,19.22
2018-07-15T20:45:04.254Z,19.19
2018-07-15T20:48:08.476Z,19.09
2018-07-15T20:51:12.703Z,19.02
2018-07-15T20:54:16.940Z,18.95
2018-07-15T20:57:21.148Z,18.91
2018-07-15T21:00:25.349Z,18.85
2018-07-15T21:03:29.552Z,18.79
2018-07-15T21:06:35.209Z,18.69
2018-07-15T21:09:39.416Z,18.62
2018-07-15T21:12:43.651Z,18.56
2018-07-15T21:15:47.869Z,18.50
2018-07-15T21:18:52.104Z,18.44
2018-07-15T21:21:56.320Z,18.37
2018-07-15T21:25:00.524Z,18.29
2018-07-15T21:28:04.868Z,18.23
2018-07-15T21:31:09.071Z,18.19
2018-07-15T21:34:13.281Z,18.13
2018-07-15T21:37:17.506Z,18.08
2018-07-15T21:40:21.726Z,18.03
2018-07-15T21:43:25.932Z,17.99
2018-07-15T21:46:30.199Z,17.95
2018-07-15T21:49:34.441Z,17.88
2018-07-15T21:52:38.680Z,17.84
2018-07-15T21:55:42.913Z,17.79
2018-07-15T21:58:47.109Z,17.73
2018-07-15T22:01:51.313Z,17.69
2018-07-15T22:04:57.697Z,17.64
2018-07-15T22:08:19.045Z,17.60
2018-07-15T22:11:23.261Z,17.57
2018-07-15T22:14:27.525Z,17.54
2018-07-15T22:17:31.750Z,17.51
2018-07-15T22:20:36.322Z,17.46
2018-07-15T22:23:40.544Z,17.44
2018-07-15T22:26:44.784Z,17.37
2018-07-15T22:29:48.780Z,17.32
2018-07-15T22:32:52.978Z,17.28
2018-07-15T22:35:57.197Z,17.24
2018-07-15T22:39:01.429Z,17.20
2018-07-15T22:42:05.633Z,17.17
2018-07-15T22:45:09.848Z,17.14
2018-07-15T22:48:14.076Z,17.09
2018-07-15T22:51:18.293Z,17.03
2018-07-15T22:54:22.513Z,16.97
2018-07-15T22:57:26.730Z,16.93
2018-07-15T23:00:31.008Z,16.91
2018-07-15T23:03:35.206Z,16.87
2018-07-15T23:06:39.651Z,16.84
2018-07-15T23:09:43.874Z,16.81
2018-07-15T23:12:48.121Z,16.74
2018-07-15T23:15:52.522Z,16.71
2018-07-15T23:18:56.749Z,16.68
2018-07-15T23:22:01.781Z,16.65
2018-07-15T23:25:06.029Z,16.63
2018-07-15T23:28:11.121Z,16.59
2018-07-15T23:31:15.397Z,16.54
2018-07-15T23:34:19.622Z,16.49
2018-07-15T23:37:23.842Z,16.45
2018-07-15T23:40:28.069Z,16.41
2018-07-15T23:43:32.287Z,16.35
2018-07-15T23:46:36.524Z,16.30
2018-07-15T23:49:40.748Z,16.28
2018-07-15T23:52:44.984Z,16.22
2018-07-15T23:55:49.200Z,16.18
2018-07-15T23:58:53.416Z,16.15
